Time;durP1;ratioP1;P1;durP2;ratioP2;P2;SDS_P1;SDS_P2;PMS_P1;PMS_P2;Temp;Humidity;BMP_temperature;BMP_pressure;BME280_temperature;BME280_humidity;BME280_pressure;Samples;Min_cycle;Max_cycle;Signal;HPM_P1;HPM_P2
2021/07/26 00:00:59;;;;;;;;;;;;;;;21.15;69.65;100617.03;4996987;28;1914;-71
2021/07/26 00:03:24;;;;;;;;;;;;;;;21.15;69.96;100616.19;5013751;28;1870;-71
2021/07/26 00:05:49;;;;;;;;;;;;;;;21.14;70.07;100612.63;5016635;28;1010;-72
2021/07/26 00:08:14;;;;;;;;;;;;;;;21.17;70.10;100613.31;5031674;28;1160;-71
2021/07/26 00:10:39;;;;;;;;;;;;;;;21.13;69.62;100620.97;5031523;28;2388;-71
2021/07/26 00:13:04;;;;;;;;;;;;;;;21.12;70.25;100614.69;5016598;28;1057;-72
2021/07/26 00:15:30;;;;;;;;;;;;;;;21.11;70.09;100615.72;4999000;28;1959;-73
2021/07/26 00:17:55;;;;;;;;;;;;;;;21.10;69.35;100611.31;4996669;28;780;-71
2021/07/26 00:20:20;;;;;;;;;;;;;;;21.10;69.29;100616.72;4996939;28;1963;-73
2021/07/26 00:22:45;;;;;;;;;;;;;;;21.09;70.25;100615.03;4996884;28;1022;-72
2021/07/26 00:25:10;;;;;;;;;;;;;;;21.07;69.15;100617.06;5008626;28;1961;-71
2021/07/26 00:27:35;;;;;;;;;;;;;;;21.06;70.12;100614.53;5016358;28;820;-71
2021/07/26 00:30:00;;;;;;;;;;;;;;;21.07;68.89;100610.81;5016040;28;886;-71
2021/07/26 00:32:28;;;;;;;;;;;;;;;21.06;69.19;100615.38;5015985;28;1005;-72
2021/07/26 00:34:53;;;;;;;;;;;;;;;21.07;69.15;100608.94;5006201;28;1901;-71
2021/07/26 00:37:19;;;;;;;;;;;;;;;21.07;69.01;100605.38;5027896;28;895;-72
2021/07/26 00:39:44;;;;;;;;;;;;;;;21.05;68.41;100602.84;4996098;28;1898;-70
2021/07/26 00:42:09;;;;;;;;;;;;;;;21.04;68.63;100606.56;5028357;28;1113;-70
2021/07/26 00:44:34;;;;;;;;;;;;;;;21.02;69.04;100603.19;4996288;28;788;-70
2021/07/26 00:47:00;;;;;;;;;;;;;;;21.03;68.95;100595.91;5037761;28;1863;-70
2021/07/26 00:49:25;;;;;;;;;;;;;;;21.02;68.81;100591.50;5015534;28;877;-72
2021/07/26 00:51:50;;;;;;;;;;;;;;;20.99;69.73;100590.00;5015521;28;815;-71
2021/07/26 00:54:15;;;;;;;;;;;;;;;20.98;68.35;100584.75;5015772;28;847;-71
2021/07/26 00:56:40;;;;;;;;;;;;;;;20.97;68.43;100578.47;5015340;28;1061;-71
2021/07/26 00:59:05;;;;;;;;;;;;;;;20.99;69.22;100575.59;5005118;28;2157;-71
2021/07/26 01:01:30;;;;;;;;;;;;;;;20.98;68.25;100571.19;4996186;28;1014;-72
2021/07/26 01:03:55;;;;;;;;;;;;;;;20.99;67.77;100581.00;4995707;28;824;-72
2021/07/26 01:06:21;;;;;;;;;;;;;;;20.96;68.71;100581.38;4996905;28;1847;-73
2021/07/26 01:08:46;;;;;;;;;;;;;;;20.95;68.98;100583.25;5015664;28;792;-71
2021/07/26 01:11:11;;;;;;;;;;;;;;;20.95;67.79;100579.69;5015440;28;832;-71
2021/07/26 01:13:36;;;;;;;;;;;;;;;20.95;67.77;100568.84;4998507;28;1965;-71
2021/07/26 01:16:01;;;;;;;;;;;;;;;20.93;68.97;100566.31;4995538;28;902;-72
2021/07/26 01:18:26;;;;;;;;;;;;;;;20.92;68.34;100567.34;5012829;28;1856;-71
2021/07/26 01:20:51;;;;;;;;;;;;;;;20.90;67.98;100577.50;5015148;28;1952;-72
2021/07/26 01:23:16;;;;;;;;;;;;;;;20.90;67.96;100571.22;5015077;28;807;-72
2021/07/26 01:25:41;;;;;;;;;;;;;;;20.90;68.25;100577.50;5015150;28;867;-72
2021/07/26 01:28:06;;;;;;;;;;;;;;;20.90;67.63;100585.63;5015164;28;997;-71
2021/07/26 01:30:33;;;;;;;;;;;;;;;20.88;67.48;100584.94;4998771;28;1961;-71
2021/07/26 01:32:58;;;;;;;;;;;;;;;20.88;68.03;100579.53;4995724;28;831;-70
2021/07/26 01:35:23;;;;;;;;;;;;;;;20.88;67.82;100584.94;4995160;28;854;-71
2021/07/26 01:37:48;;;;;;;;;;;;;;;20.87;68.26;100583.25;4995236;28;819;-71
2021/07/26 01:40:13;;;;;;;;;;;;;;;20.88;68.51;100584.94;4995117;28;1965;-70
2021/07/26 01:42:38;;;;;;;;;;;;;;;20.88;67.71;100578.69;5012715;28;2021;-71
2021/07/26 01:45:03;;;;;;;;;;;;;;;20.87;68.82;100580.53;5013267;28;1889;-71
2021/07/26 01:47:28;;;;;;;;;;;;;;;20.85;68.35;100577.16;5014722;28;1018;-72
2021/07/26 01:49:53;;;;;;;;;;;;;;;20.86;67.33;100573.44;5029966;28;1021;-72
2021/07/26 01:52:18;;;;;;;;;;;;;;;20.85;68.81;100569.03;5014508;28;1926;-71
2021/07/26 01:54:43;;;;;;;;;;;;;;;20.84;67.94;100578.19;4995247;28;1090;-71
2021/07/26 01:57:08;;;;;;;;;;;;;;;20.84;67.49;100583.59;5027115;28;1045;-72
2021/07/26 01:59:34;;;;;;;;;;;;;;;20.84;68.07;100582.75;4995215;28;1910;-72
2021/07/26 02:01:59;;;;;;;;;;;;;;;20.83;67.89;100583.75;4995225;28;858;-72
2021/07/26 02:04:24;;;;;;;;;;;;;;;20.81;68.19;100581.22;4996632;28;2241;-72
2021/07/26 02:06:49;;;;;;;;;;;;;;;20.83;67.98;100578.34;5015160;28;1073;-71
2021/07/26 02:09:14;;;;;;;;;;;;;;;20.79;68.39;100583.25;5017800;28;918;-71
2021/07/26 02:11:39;;;;;;;;;;;;;;;20.79;67.54;100583.25;5018692;28;863;-72
2021/07/26 02:14:09;;;;;;;;;;;;;;;20.80;67.19;100579.53;5018856;28;811;-71
2021/07/26 02:16:34;;;;;;;;;;;;;;;20.78;68.35;100576.19;5015017;28;1930;-70
2021/07/26 02:18:59;;;;;;;;;;;;;;;20.77;67.68;100582.59;4998787;28;1894;-70
2021/07/26 02:21:24;;;;;;;;;;;;;;;20.78;68.07;100589.72;4998762;28;816;-70
2021/07/26 02:23:49;;;;;;;;;;;;;;;20.78;67.48;100592.44;5030323;28;1113;-70
2021/07/26 02:26:14;;;;;;;;;;;;;;;20.76;67.53;100589.88;5012618;28;1953;-70
2021/07/26 02:28:40;;;;;;;;;;;;;;;20.76;67.84;100586.34;5018597;28;1910;-70
2021/07/26 02:31:05;;;;;;;;;;;;;;;20.73;69.12;100582.09;5018587;28;752;-70
2021/07/26 02:33:30;;;;;;;;;;;;;;;20.74;67.97;100574.81;5018180;28;994;-70
2021/07/26 02:35:56;;;;;;;;;;;;;;;20.74;68.18;100580.25;5006981;28;1870;-69
2021/07/26 02:38:21;;;;;;;;;;;;;;;20.72;68.47;100575.00;4998585;28;1018;-70
2021/07/26 02:40:46;;;;;;;;;;;;;;;20.71;68.19;100578.72;4998721;28;1898;-70
2021/07/26 02:43:11;;;;;;;;;;;;;;;20.72;68.14;100574.16;5030031;28;724;-70
2021/07/26 02:45:36;;;;;;;;;;;;;;;20.72;67.58;100582.25;4998416;28;1076;-70
2021/07/26 02:48:01;;;;;;;;;;;;;;;20.71;68.42;100586.00;5010757;28;1916;-70
2021/07/26 02:50:26;;;;;;;;;;;;;;;20.69;67.39;100578.03;5018128;28;780;-70
2021/07/26 02:52:52;;;;;;;;;;;;;;;20.68;67.59;100579.06;5018146;28;855;-73
2021/07/26 02:55:17;;;;;;;;;;;;;;;20.70;68.25;100584.31;5017911;28;1002;-71
2021/07/26 02:57:42;;;;;;;;;;;;;;;20.69;68.15;100579.91;5018068;28;953;-71
2021/07/26 03:00:07;;;;;;;;;;;;;;;20.65;67.91;100582.09;5007099;28;1914;-70
2021/07/26 03:02:32;;;;;;;;;;;;;;;20.65;69.74;100592.06;4998032;28;1033;-70
2021/07/26 03:04:58;;;;;;;;;;;;;;;20.64;68.79;100584.97;4997923;28;906;-70
2021/07/26 03:07:23;;;;;;;;;;;;;;;20.65;68.10;100586.66;4998317;28;898;-69
2021/07/26 03:09:48;;;;;;;;;;;;;;;20.66;68.00;100591.91;4997837;28;1179;-70
2021/07/26 03:12:13;;;;;;;;;;;;;;;20.64;68.38;100577.69;5007685;28;2032;-72
2021/07/26 03:14:38;;;;;;;;;;;;;;;20.67;67.71;100590.06;5017631;28;985;-73
2021/07/26 03:17:04;;;;;;;;;;;;;;;20.66;68.40;100596.47;5032636;28;910;-71
2021/07/26 03:19:29;;;;;;;;;;;;;;;20.64;68.31;100593.94;5017040;28;1958;-72
2021/07/26 03:21:55;;;;;;;;;;;;;;;20.62;68.10;100595.13;5017521;28;799;-73
2021/07/26 03:24:20;;;;;;;;;;;;;;;20.58;68.90;100599.22;4999566;28;1908;-71
2021/07/26 03:26:45;;;;;;;;;;;;;;;20.59;68.51;100603.63;4997772;28;827;-72
2021/07/26 03:29:10;;;;;;;;;;;;;;;20.62;68.39;100601.38;4997811;28;997;-72
2021/07/26 03:31:40;;;;;;;;;;;;;;;20.61;68.35;100599.69;4998658;28;1957;-72
2021/07/26 03:34:05;;;;;;;;;;;;;;;20.60;69.78;100598.00;5010885;28;1699;-71
2021/07/26 03:36:30;;;;;;;;;;;;;;;20.60;68.48;100597.19;5017176;28;1001;-72
2021/07/26 03:38:55;;;;;;;;;;;;;;;20.59;68.86;100596.34;5016900;28;1898;-72
2021/07/26 03:41:21;;;;;;;;;;;;;;;20.58;67.85;100593.78;5015466;28;1614;-72
2021/07/26 03:43:46;;;;;;;;;;;;;;;20.61;68.49;100604.25;5017002;28;515;-72
2021/07/26 03:46:11;;;;;;;;;;;;;;;20.62;69.51;100603.25;5017325;28;1061;-72
2021/07/26 03:48:36;;;;;;;;;;;;;;;20.61;69.38;100601.56;5015181;28;907;-71
2021/07/26 03:51:01;;;;;;;;;;;;;;;20.60;69.59;100602.59;5016730;28;962;-71
2021/07/26 03:53:26;;;;;;;;;;;;;;;20.59;68.82;100595.50;5016898;28;1513;-72
2021/07/26 03:55:51;;;;;;;;;;;;;;;20.59;69.53;100596.34;5016560;28;990;-72
2021/07/26 03:58:16;;;;;;;;;;;;;;;20.58;68.16;100600.06;5015699;28;1362;-72
2021/07/26 04:00:41;;;;;;;;;;;;;;;20.59;68.32;100599.03;5017134;28;1926;-71
2021/07/26 04:03:20;;;;;;;;;;;;;;;20.58;68.81;100599.22;5016580;28;934;-71
2021/07/26 04:06:04;;;;;;;;;;;;;;;20.60;68.75;100599.91;5014983;28;1768;-71
2021/07/26 04:08:32;;;;;;;;;;;;;;;20.57;68.49;100602.94;5016981;28;807;-71
2021/07/26 04:11:05;;;;;;;;;;;;;;;20.57;69.63;100601.06;5016419;28;1159;-71
2021/07/26 04:13:33;;;;;;;;;;;;;;;20.50;70.23;100607.31;5016607;28;771;-72
2021/07/26 04:15:58;;;;;;;;;;;;;;;20.42;69.88;100600.88;5016484;28;847;-73
2021/07/26 04:18:25;;;;;;;;;;;;;;;20.49;69.36;100609.19;5016310;28;1679;-73
2021/07/26 04:20:51;;;;;;;;;;;;;;;20.43;70.32;100608.00;5016749;28;1951;-73
2021/07/26 04:23:17;;;;;;;;;;;;;;;20.36;70.42;100609.69;5016833;28;760;-74
2021/07/26 04:25:42;;;;;;;;;;;;;;;20.39;70.06;100612.06;5016094;28;1645;-73
2021/07/26 04:28:07;;;;;;;;;;;;;;;20.46;69.11;100606.81;5016315;28;800;-73
2021/07/26 04:30:32;;;;;;;;;;;;;;;20.52;68.83;100605.28;5015707;28;852;-73
2021/07/26 04:32:57;;;;;;;;;;;;;;;20.53;68.27;100607.00;5016360;28;981;-72
2021/07/26 04:35:22;;;;;;;;;;;;;;;20.54;68.50;100604.13;5016012;28;1715;-72
2021/07/26 04:37:47;;;;;;;;;;;;;;;20.57;68.69;100600.22;5015934;28;1732;-72
2021/07/26 04:40:12;;;;;;;;;;;;;;;20.58;69.32;100599.22;5016013;28;1894;-71
2021/07/26 04:42:37;;;;;;;;;;;;;;;20.59;68.46;100598.19;5016212;28;776;-71
2021/07/26 04:45:02;;;;;;;;;;;;;;;20.61;68.61;100601.56;5015806;28;998;-71
2021/07/26 04:47:27;;;;;;;;;;;;;;;20.62;68.48;100604.09;5015586;28;1681;-71
2021/07/26 04:49:53;;;;;;;;;;;;;;;20.62;68.54;100603.25;5015942;28;1054;-71
2021/07/26 04:52:18;;;;;;;;;;;;;;;20.63;68.68;100610.34;5016638;28;1017;-72
2021/07/26 04:54:43;;;;;;;;;;;;;;;20.63;69.28;100607.66;5014343;28;947;-71
2021/07/26 04:57:08;;;;;;;;;;;;;;;20.66;68.72;100607.31;5015563;28;1706;-71
2021/07/26 04:59:33;;;;;;;;;;;;;;;20.66;68.84;100605.44;5015720;28;1918;-73
2021/07/26 05:01:58;;;;;;;;;;;;;;;20.73;69.85;100603.75;5015303;28;1801;-71
2021/07/26 05:04:23;;;;;;;;;;;;;;;20.76;69.51;100608.00;5015100;28;1740;-71
2021/07/26 05:06:48;;;;;;;;;;;;;;;20.87;69.53;100614.91;5015355;28;1844;-72
2021/07/26 05:09:13;;;;;;;;;;;;;;;20.94;69.71;100610.50;5015672;28;804;-70
2021/07/26 05:11:40;;;;;;;;;;;;;;;21.00;70.13;100609.78;5015363;28;804;-70
2021/07/26 05:14:05;;;;;;;;;;;;;;;21.07;71.01;100611.66;5015842;28;627;-70
2021/07/26 05:16:31;;;;;;;;;;;;;;;21.07;70.92;100611.66;5015448;28;1800;-70
2021/07/26 05:18:56;;;;;;;;;;;;;;;21.10;70.55;100611.31;5015104;28;1213;-71
2021/07/26 05:21:22;;;;;;;;;;;;;;;21.10;71.08;100619.44;5015255;28;1890;-71
2021/07/26 05:23:47;;;;;;;;;;;;;;;21.05;71.61;100610.97;5014532;28;1796;-69
2021/07/26 05:26:12;;;;;;;;;;;;;;;21.03;71.16;100612.16;5012487;28;1598;-68
2021/07/26 05:28:37;;;;;;;;;;;;;;;21.02;70.38;100605.91;5013280;28;1660;-69
2021/07/26 05:31:02;;;;;;;;;;;;;;;21.01;71.50;100608.78;5014800;28;1513;-68
2021/07/26 05:33:27;;;;;;;;;;;;;;;20.83;71.57;100613.56;5015104;28;1636;-68
2021/07/26 05:35:54;;;;;;;;;;;;;;;20.80;71.53;100617.44;5046791;28;1685;-67
2021/07/26 05:38:19;;;;;;;;;;;;;;;20.93;70.91;100617.78;5014423;28;1507;-68
2021/07/26 05:40:44;;;;;;;;;;;;;;;20.97;70.50;100623.69;5014103;28;1897;-68
2021/07/26 05:43:10;;;;;;;;;;;;;;;20.98;70.17;100612.69;5046383;28;1491;-68
2021/07/26 05:45:36;;;;;;;;;;;;;;;21.06;70.08;100620.81;5014497;28;1339;-69
2021/07/26 05:48:01;;;;;;;;;;;;;;;21.10;70.42;100619.44;5014387;28;1407;-69
2021/07/26 05:50:26;;;;;;;;;;;;;;;21.07;70.57;100611.66;5014527;28;1227;-68
2021/07/26 05:52:51;;;;;;;;;;;;;;;20.95;70.97;100617.63;5015455;28;1021;-68
2021/07/26 05:55:16;;;;;;;;;;;;;;;21.04;69.64;100612.00;5014692;28;1831;-70
2021/07/26 05:57:48;;;;;;;;;;;;;;;21.10;69.86;100616.72;5014684;28;795;-69
2021/07/26 06:00:15;;;;;;;;;;;;;;;21.15;69.89;100610.78;5014481;28;1983;-69
2021/07/26 06:02:41;;;;;;;;;;;;;;;21.14;69.56;100611.78;5015140;28;759;-69
2021/07/26 06:05:07;;;;;;;;;;;;;;;21.12;70.04;100603.84;5014505;28;1744;-69
2021/07/26 06:07:32;;;;;;;;;;;;;;;21.15;69.97;100605.34;5014696;28;1005;-69
2021/07/26 06:09:57;;;;;;;;;;;;;;;21.18;70.02;100598.75;5015176;28;1044;-69
2021/07/26 06:12:23;;;;;;;;;;;;;;;21.22;70.43;100592.00;5014762;28;883;-69
2021/07/26 06:14:48;;;;;;;;;;;;;;;21.27;69.72;100603.16;5015036;28;906;-69
2021/07/26 06:17:13;;;;;;;;;;;;;;;21.23;69.86;100599.09;5014904;28;1994;-69
2021/07/26 06:19:38;;;;;;;;;;;;;;;21.24;69.91;100601.66;5013562;28;1914;-69
2021/07/26 06:22:03;;;;;;;;;;;;;;;21.19;69.71;100603.16;5013503;28;828;-69
2021/07/26 06:24:28;;;;;;;;;;;;;;;21.17;69.54;100610.59;5014274;28;1670;-69
2021/07/26 06:26:56;;;;;;;;;;;;;;;21.17;70.49;100605.19;5014522;28;1484;-69
2021/07/26 06:29:22;;;;;;;;;;;;;;;21.25;69.19;100600.63;5014499;28;866;-69
2021/07/26 06:31:48;;;;;;;;;;;;;;;21.34;69.55;100602.28;5014788;28;830;-69
2021/07/26 06:34:13;;;;;;;;;;;;;;;21.35;69.56;100606.69;5014505;28;1645;-69
2021/07/26 06:36:41;;;;;;;;;;;;;;;21.41;69.38;100611.41;5014514;28;815;-69
2021/07/26 06:39:06;;;;;;;;;;;;;;;21.34;69.40;100606.84;5014506;28;1947;-69
2021/07/26 06:41:31;;;;;;;;;;;;;;;21.37;69.91;100617.34;5014400;28;1085;-69
2021/07/26 06:43:57;;;;;;;;;;;;;;;21.39;69.63;100618.03;5014245;28;1652;-69
2021/07/26 06:46:22;;;;;;;;;;;;;;;21.41;69.72;100615.97;5014639;28;935;-69
2021/07/26 06:48:47;;;;;;;;;;;;;;;21.38;69.70;100614.47;5014350;28;887;-69
2021/07/26 06:51:12;;;;;;;;;;;;;;;21.33;69.89;100626.84;5014352;28;950;-69
2021/07/26 06:53:37;;;;;;;;;;;;;;;21.34;70.01;100620.41;5014575;28;907;-69
2021/07/26 06:56:03;;;;;;;;;;;;;;;21.34;70.10;100631.25;5017446;28;1780;-70
2021/07/26 06:58:28;;;;;;;;;;;;;;;21.21;69.78;100629.09;5018278;28;868;-70
2021/07/26 07:00:53;;;;;;;;;;;;;;;21.17;69.50;100632.28;5016595;28;1914;-69
2021/07/26 07:03:18;;;;;;;;;;;;;;;21.18;70.60;100640.25;5017487;28;1622;-69
2021/07/26 07:05:43;;;;;;;;;;;;;;;21.19;69.74;100641.09;5017909;28;1740;-69
2021/07/26 07:08:08;;;;;;;;;;;;;;;21.22;69.76;100638.06;5017848;28;942;-70
2021/07/26 07:10:33;;;;;;;;;;;;;;;21.22;69.50;100638.06;5017919;28;988;-69
2021/07/26 07:12:58;;;;;;;;;;;;;;;21.25;70.68;100640.44;5017376;28;1755;-69
2021/07/26 07:15:23;;;;;;;;;;;;;;;21.25;70.53;100638.56;5017468;28;799;-69
2021/07/26 07:17:49;;;;;;;;;;;;;;;21.24;70.16;100646.88;5017802;28;1076;-69
2021/07/26 07:20:14;;;;;;;;;;;;;;;21.26;69.80;100658.38;5017371;28;1957;-70
2021/07/26 07:22:39;;;;;;;;;;;;;;;21.25;69.90;100652.13;5017333;28;862;-69
2021/07/26 07:25:04;;;;;;;;;;;;;;;21.25;70.07;100662.97;5017303;28;1708;-70
2021/07/26 07:27:29;;;;;;;;;;;;;;;21.27;69.59;100651.94;5017522;28;1005;-69
2021/07/26 07:29:55;;;;;;;;;;;;;;;21.27;69.23;100655.50;5017324;28;879;-70
2021/07/26 07:32:20;;;;;;;;;;;;;;;21.23;69.90;100653.31;5017777;28;767;-70
2021/07/26 07:34:45;;;;;;;;;;;;;;;21.19;70.50;100658.19;5017785;28;859;-69
2021/07/26 07:37:10;;;;;;;;;;;;;;;21.14;70.40;100655.16;5017140;28;1755;-70
2021/07/26 07:39:36;;;;;;;;;;;;;;;21.17;70.66;100653.97;5016991;28;1949;-70
2021/07/26 07:42:01;;;;;;;;;;;;;;;21.19;69.88;100660.91;5015929;28;930;-69
2021/07/26 07:44:30;;;;;;;;;;;;;;;21.19;69.85;100652.78;5016879;28;842;-69
2021/07/26 07:46:55;;;;;;;;;;;;;;;21.20;70.39;100654.50;5017691;28;826;-69
2021/07/26 07:49:20;;;;;;;;;;;;;;;21.22;70.16;100657.88;5016799;28;1846;-70
2021/07/26 07:51:47;;;;;;;;;;;;;;;21.21;70.35;100660.75;5016744;28;1650;-70
2021/07/26 07:54:13;;;;;;;;;;;;;;;21.12;69.98;100651.78;5017134;28;850;-69
2021/07/26 07:56:38;;;;;;;;;;;;;;;21.12;70.81;100654.50;5015592;28;1251;-69
2021/07/26 07:59:05;;;;;;;;;;;;;;;21.07;70.90;100660.44;5016640;28;1225;-69
2021/07/26 08:01:31;;;;;;;;;;;;;;;21.12;70.29;100666.19;5017028;28;1781;-69
2021/07/26 08:03:56;;;;;;;;;;;;;;;21.17;70.29;100660.22;5016462;28;1785;-69
2021/07/26 08:06:21;;;;;;;;;;;;;;;21.21;69.93;100661.63;5016000;28;858;-69
2021/07/26 08:08:46;;;;;;;;;;;;;;;21.23;70.09;100658.72;5016718;28;819;-69
2021/07/26 08:11:11;;;;;;;;;;;;;;;21.22;70.11;100660.59;5016643;28;942;-70
2021/07/26 08:13:37;;;;;;;;;;;;;;;21.23;70.03;100662.28;5016379;28;1860;-69
2021/07/26 08:16:02;;;;;;;;;;;;;;;21.20;70.08;100664.50;5016477;28;823;-69
2021/07/26 08:18:27;;;;;;;;;;;;;;;21.22;70.20;100662.47;5016575;28;950;-69
2021/07/26 08:20:52;;;;;;;;;;;;;;;21.23;70.32;100670.41;5016459;28;1961;-69
2021/07/26 08:23:18;;;;;;;;;;;;;;;21.22;70.27;100651.63;5016538;28;1784;-69
2021/07/26 08:25:43;;;;;;;;;;;;;;;21.21;69.77;100663.47;5016218;28;1146;-69
2021/07/26 08:28:08;;;;;;;;;;;;;;;21.21;70.93;100658.06;5014897;28;1377;-70
2021/07/26 08:30:33;;;;;;;;;;;;;;;21.19;70.49;100662.78;5016198;28;839;-69
2021/07/26 08:32:58;;;;;;;;;;;;;;;21.16;70.21;100666.66;5016252;28;1863;-69
2021/07/26 08:35:24;;;;;;;;;;;;;;;21.17;69.97;100671.06;5016087;28;1846;-69
2021/07/26 08:37:49;;;;;;;;;;;;;;;21.15;69.90;100673.09;5016387;28;866;-70
2021/07/26 08:40:14;;;;;;;;;;;;;;;21.12;70.21;100668.91;5015899;28;1963;-69
2021/07/26 08:42:40;;;;;;;;;;;;;;;21.15;70.15;100683.94;5015908;28;827;-70
2021/07/26 08:45:05;;;;;;;;;;;;;;;21.15;69.97;100683.94;5015789;28;1602;-70
2021/07/26 08:47:30;;;;;;;;;;;;;;;21.19;70.13;100682.59;5016106;28;855;-69
2021/07/26 08:49:55;;;;;;;;;;;;;;;21.19;69.80;100677.16;5015957;28;807;-70
2021/07/26 08:52:22;;;;;;;;;;;;;;;21.22;70.11;100681.44;5015554;28;1847;-70
2021/07/26 08:54:47;;;;;;;;;;;;;;;21.21;69.65;100685.16;5014383;28;1560;-70
2021/07/26 08:57:13;;;;;;;;;;;;;;;21.22;70.11;100684.16;5014383;28;1623;-69
2021/07/26 08:59:38;;;;;;;;;;;;;;;21.18;69.85;100683.59;5015308;28;1918;-70
2021/07/26 09:02:03;;;;;;;;;;;;;;;21.17;69.89;100689.19;5016124;28;827;-70
2021/07/26 09:04:29;;;;;;;;;;;;;;;21.08;70.67;100691.94;5015525;28;1053;-70
2021/07/26 09:06:55;;;;;;;;;;;;;;;21.13;70.11;100683.28;5014396;28;843;-70
2021/07/26 09:09:20;;;;;;;;;;;;;;;21.20;69.92;100692.44;5015647;28;776;-69
2021/07/26 09:11:45;;;;;;;;;;;;;;;21.25;70.14;100689.22;5015393;28;1799;-70
2021/07/26 09:14:11;;;;;;;;;;;;;;;21.23;70.11;100683.97;5014092;28;1396;-70
2021/07/26 09:16:36;;;;;;;;;;;;;;;21.25;70.00;100684.66;5015541;28;784;-69
2021/07/26 09:19:01;;;;;;;;;;;;;;;21.26;69.82;100683.63;5015555;28;906;-70
2021/07/26 09:21:26;;;;;;;;;;;;;;;21.22;70.13;100684.16;5015395;28;1975;-70
2021/07/26 09:23:52;;;;;;;;;;;;;;;21.24;70.05;100679.41;5015159;28;1785;-69
2021/07/26 09:26:17;;;;;;;;;;;;;;;21.30;70.22;100670.59;5013915;28;1095;-70
2021/07/26 09:28:42;;;;;;;;;;;;;;;21.36;70.17;100675.28;5015167;28;1018;-70
2021/07/26 09:31:07;;;;;;;;;;;;;;;21.40;69.52;100676.66;5013949;28;1703;-69
2021/07/26 09:33:32;;;;;;;;;;;;;;;21.43;69.57;100676.31;5015565;28;832;-70
2021/07/26 09:35:57;;;;;;;;;;;;;;;21.38;69.98;100678.69;5015226;28;1751;-70
2021/07/26 09:38:22;;;;;;;;;;;;;;;21.35;69.83;100671.72;5015362;28;958;-70
2021/07/26 09:40:47;;;;;;;;;;;;;;;21.38;69.95;100678.69;5015111;28;1926;-70
2021/07/26 09:43:12;;;;;;;;;;;;;;;21.41;69.68;100689.19;5015013;28;2036;-70
2021/07/26 09:45:37;;;;;;;;;;;;;;;21.49;69.76;100681.03;5014941;28;1124;-69
2021/07/26 09:48:03;;;;;;;;;;;;;;;21.55;69.84;100679.47;5014957;28;1033;-70
2021/07/26 09:50:28;;;;;;;;;;;;;;;21.55;69.80;100676.75;5013631;28;1687;-69
2021/07/26 09:52:53;;;;;;;;;;;;;;;21.52;69.31;100675.25;5015156;28;919;-70
2021/07/26 09:55:18;;;;;;;;;;;;;;;21.54;69.47;100675.91;5014828;28;926;-70
2021/07/26 09:57:44;;;;;;;;;;;;;;;21.58;69.11;100674.56;5014885;28;994;-69
2021/07/26 10:00:11;;;;;;;;;;;;;;;21.57;68.31;100680.16;5014322;28;2004;-70
2021/07/26 10:02:37;;;;;;;;;;;;;;;21.56;69.01;100676.59;5015374;28;775;-70
2021/07/26 10:05:02;;;;;;;;;;;;;;;21.56;68.48;100675.75;5014985;28;950;-70
2021/07/26 10:07:27;;;;;;;;;;;;;;;21.58;68.83;100673.72;5014800;28;877;-69
2021/07/26 10:09:53;;;;;;;;;;;;;;;21.60;68.62;100671.66;5014886;28;1786;-70
2021/07/26 10:12:18;;;;;;;;;;;;;;;21.61;68.61;100678.78;5015531;28;886;-70
2021/07/26 10:14:46;;;;;;;;;;;;;;;21.61;68.09;100674.22;5014750;28;993;-70
2021/07/26 10:17:11;;;;;;;;;;;;;;;21.62;68.27;100677.75;5014826;28;795;-70
2021/07/26 10:19:36;;;;;;;;;;;;;;;21.62;68.35;100677.75;5013385;28;1898;-70
2021/07/26 10:22:01;;;;;;;;;;;;;;;21.62;68.42;100675.91;5014696;28;1617;-70
2021/07/26 10:24:26;;;;;;;;;;;;;;;21.66;68.30;100681.81;5014550;28;828;-70
2021/07/26 10:26:58;;;;;;;;;;;;;;;21.70;68.15;100675.84;5015281;28;922;-70
2021/07/26 10:29:23;;;;;;;;;;;;;;;21.71;67.68;100669.41;5015933;28;846;-70
2021/07/26 10:31:48;;;;;;;;;;;;;;;21.72;67.87;100678.38;5017140;28;1680;-69
2021/07/26 10:34:15;;;;;;;;;;;;;;;21.71;67.87;100679.41;5018495;28;954;-69
2021/07/26 10:36:40;;;;;;;;;;;;;;;21.74;67.95;100676.34;5017110;28;1689;-70
2021/07/26 10:39:05;;;;;;;;;;;;;;;21.74;67.74;100679.91;5017053;28;1669;-70
2021/07/26 10:41:30;;;;;;;;;;;;;;;21.73;67.56;100670.09;5018157;28;1931;-70
2021/07/26 10:43:55;;;;;;;;;;;;;;;21.72;67.78;100671.09;5018392;28;1042;-70
2021/07/26 10:46:20;;;;;;;;;;;;;;;21.74;67.31;100669.06;5018237;28;780;-70
2021/07/26 10:48:45;;;;;;;;;;;;;;;21.74;67.72;100668.22;5017989;28;1986;-70
2021/07/26 10:51:10;;;;;;;;;;;;;;;21.71;67.29;100666.69;5018250;28;1002;-70
2021/07/26 10:53:36;;;;;;;;;;;;;;;21.73;67.39;100667.38;5018240;28;1004;-70
2021/07/26 10:56:02;;;;;;;;;;;;;;;21.76;66.82;100666.19;5016615;28;811;-69
2021/07/26 10:58:28;;;;;;;;;;;;;;;21.76;66.61;100677.03;5017892;28;1736;-70
2021/07/26 11:00:53;;;;;;;;;;;;;;;21.80;66.25;100673.78;5018041;28;1912;-69
2021/07/26 11:03:18;;;;;;;;;;;;;;;21.69;66.14;100671.44;5016890;28;1006;-69
2021/07/26 11:05:45;;;;;;;;;;;;;;;21.70;66.04;100672.28;5017753;28;907;-70
2021/07/26 11:08:10;;;;;;;;;;;;;;;21.70;65.65;100662.28;5018043;28;1691;-69
2021/07/26 11:10:35;;;;;;;;;;;;;;;21.72;65.39;100660.25;5017864;28;973;-69
2021/07/26 11:13:00;;;;;;;;;;;;;;;21.75;65.48;100659.06;5017918;28;879;-71
2021/07/26 11:15:25;;;;;;;;;;;;;;;21.76;64.95;100660.75;5016371;28;1267;-71
2021/07/26 11:17:50;;;;;;;;;;;;;;;21.74;65.39;100666.34;5018019;28;874;-71
2021/07/26 11:20:15;;;;;;;;;;;;;;;21.75;65.50;100657.19;5017479;28;1894;-71
2021/07/26 11:22:40;;;;;;;;;;;;;;;21.82;64.85;100671.75;5016225;28;2050;-70
2021/07/26 11:25:06;;;;;;;;;;;;;;;21.83;64.66;100665.31;5016136;28;1358;-71
2021/07/26 11:27:31;;;;;;;;;;;;;;;21.84;65.47;100663.44;5017572;28;866;-70
2021/07/26 11:29:56;;;;;;;;;;;;;;;21.89;64.98;100660.16;5015947;28;1232;-71
2021/07/26 11:32:21;;;;;;;;;;;;;;;21.90;63.95;100667.28;5015860;28;1756;-71
2021/07/26 11:34:46;;;;;;;;;;;;;;;21.88;64.79;100661.19;5017225;28;1242;-71
2021/07/26 11:37:13;;;;;;;;;;;;;;;21.91;63.98;100653.56;5017219;28;1781;-71
2021/07/26 11:39:38;;;;;;;;;;;;;;;21.91;64.51;100660.84;5017437;28;1890;-70
2021/07/26 11:42:04;;;;;;;;;;;;;;;21.91;63.53;100663.56;5017163;28;1065;-71
2021/07/26 11:44:29;;;;;;;;;;;;;;;21.87;65.08;100657.63;5017409;28;1795;-71
2021/07/26 11:46:54;;;;;;;;;;;;;;;21.89;64.36;100660.16;5015867;28;1204;-70
2021/07/26 11:49:19;;;;;;;;;;;;;;;21.90;64.38;100664.56;5017101;28;846;-71
2021/07/26 11:51:44;;;;;;;;;;;;;;;21.89;64.40;100657.47;5015754;28;891;-69
2021/07/26 11:54:09;;;;;;;;;;;;;;;21.90;64.54;100651.00;5016924;28;946;-70
2021/07/26 11:56:35;;;;;;;;;;;;;;;21.91;64.50;100652.69;5017007;28;1771;-70
2021/07/26 11:59:00;;;;;;;;;;;;;;;21.92;63.90;100655.25;5015882;28;1337;-71
2021/07/26 12:01:25;;;;;;;;;;;;;;;21.94;63.67;100650.47;5017000;28;1969;-70
2021/07/26 12:03:50;;;;;;;;;;;;;;;21.97;63.39;100657.44;5016942;28;867;-69
2021/07/26 12:06:15;;;;;;;;;;;;;;;21.91;63.20;100647.28;5016578;28;891;-69
2021/07/26 12:08:40;;;;;;;;;;;;;;;21.91;63.88;100644.56;5016606;28;1695;-69
2021/07/26 12:11:05;;;;;;;;;;;;;;;21.92;63.85;100665.25;5016636;28;1061;-69
2021/07/26 12:13:30;;;;;;;;;;;;;;;21.95;63.97;100660.31;5015292;28;1431;-69
2021/07/26 12:15:55;;;;;;;;;;;;;;;21.92;63.71;100663.38;5014918;28;1711;-69
2021/07/26 12:18:20;;;;;;;;;;;;;;;21.89;63.84;100652.03;5016411;28;824;-69
2021/07/26 12:20:45;;;;;;;;;;;;;;;21.95;63.79;100656.75;5016577;28;1898;-69
2021/07/26 12:23:10;;;;;;;;;;;;;;;21.96;64.14;100653.03;5016560;28;947;-69
2021/07/26 12:25:36;;;;;;;;;;;;;;;21.98;63.49;100653.69;5016145;28;1739;-69
2021/07/26 12:28:04;;;;;;;;;;;;;;;22.00;63.28;100649.81;5016157;28;1773;-69
2021/07/26 12:30:29;;;;;;;;;;;;;;;22.02;63.24;100660.50;5016148;28;811;-69
2021/07/26 12:32:54;;;;;;;;;;;;;;;22.04;63.22;100659.25;5016657;28;959;-69
2021/07/26 12:35:19;;;;;;;;;;;;;;;22.01;62.77;100661.53;5014504;28;1739;-69
2021/07/26 12:37:44;;;;;;;;;;;;;;;22.02;62.70;100660.50;5016031;28;1001;-70
2021/07/26 12:40:10;;;;;;;;;;;;;;;21.99;62.63;100667.09;5014698;28;1902;-70